createdAt,value
2024-03-10T00:05:33.599Z,7.10
2024-03-10T00:11:27.932Z,6.90
2024-03-10T00:17:22.407Z,6.90
2024-03-10T00:23:16.016Z,6.80
2024-03-10T00:29:11.808Z,6.90
2024-03-10T00:35:10.256Z,6.80
2024-03-10T00:41:03.371Z,6.90
2024-03-10T00:46:58.474Z,6.80
2024-03-10T00:52:53.475Z,6.80
2024-03-10T00:58:47.150Z,6.80
2024-03-10T01:04:40.592Z,6.70
2024-03-10T01:10:36.998Z,6.70
2024-03-10T01:16:31.376Z,6.80
2024-03-10T01:22:24.762Z,6.70
2024-03-10T01:28:19.465Z,6.70
2024-03-10T01:34:12.936Z,6.70
2024-03-10T01:40:07.568Z,6.70
2024-03-10T01:46:08.137Z,6.50
2024-03-10T01:52:01.708Z,6.60
2024-03-10T01:57:54.883Z,6.40
2024-03-10T02:03:52.093Z,6.50
2024-03-10T02:09:46.364Z,6.40
2024-03-10T02:15:40.082Z,6.40
2024-03-10T02:21:35.310Z,6.40
2024-03-10T02:27:31.227Z,6.30
2024-03-10T02:33:42.023Z,6.30
2024-03-10T02:39:52.975Z,6.30
2024-03-10T02:46:05.537Z,6.20
2024-03-10T02:51:58.582Z,6.30
2024-03-10T02:57:51.804Z,6.30
2024-03-10T03:03:46.675Z,6.30
2024-03-10T03:09:40.363Z,6.20
2024-03-10T03:15:33.587Z,6.20
2024-03-10T03:21:27.921Z,6.30
2024-03-10T03:27:21.501Z,6.20
2024-03-10T03:33:14.914Z,6.20
2024-03-10T03:39:10.536Z,6.10
2024-03-10T03:45:04.356Z,6.20
2024-03-10T03:50:57.595Z,6.00
2024-03-10T03:56:52.175Z,5.90
2024-03-10T04:02:48.009Z,6.00
2024-03-10T04:08:41.058Z,6.00
2024-03-10T04:14:35.428Z,5.90
2024-03-10T04:20:29.085Z,5.90
2024-03-10T04:26:24.503Z,6.00
2024-03-10T04:32:18.949Z,5.90
2024-03-10T04:38:12.290Z,6.00
2024-03-10T04:44:05.948Z,6.00
2024-03-10T04:50:00.776Z,6.00
2024-03-10T04:55:53.908Z,5.90
2024-03-10T05:01:47.041Z,5.90
2024-03-10T05:07:42.174Z,5.80
2024-03-10T05:13:37.245Z,5.90
2024-03-10T05:19:30.953Z,5.90
2024-03-10T05:25:25.590Z,5.90
2024-03-10T05:31:29.387Z,5.80
2024-03-10T05:37:23.612Z,5.90
2024-03-10T05:43:18.205Z,5.90
2024-03-10T05:49:11.468Z,5.90
2024-03-10T05:55:08.607Z,5.90
2024-03-10T06:01:03.529Z,5.90
2024-03-10T06:06:56.848Z,5.80
2024-03-10T06:12:50.142Z,6.00
2024-03-10T06:19:02.234Z,6.00
2024-03-10T06:25:13.048Z,5.90
2024-03-10T06:31:06.151Z,6.00
2024-03-10T06:37:00.964Z,6.00
2024-03-10T06:42:54.169Z,6.10
2024-03-10T06:48:47.533Z,6.10
2024-03-10T06:54:42.521Z,6.20
2024-03-10T07:00:36.202Z,6.30
2024-03-10T07:06:29.694Z,6.30
2024-03-10T07:12:24.318Z,6.40
2024-03-10T07:18:17.746Z,6.50
2024-03-10T07:24:15.589Z,6.60
2024-03-10T07:30:13.806Z,6.80
2024-03-10T07:36:07.537Z,6.80
2024-03-10T07:42:00.984Z,6.90
2024-03-10T07:47:57.173Z,7.10
2024-03-10T07:53:50.554Z,7.20
2024-03-10T07:59:43.818Z,7.30
2024-03-10T08:05:39.380Z,7.40
2024-03-10T08:11:33.118Z,7.60
2024-03-10T08:17:26.274Z,7.60
2024-03-10T08:23:21.763Z,7.70
2024-03-10T08:29:15.044Z,7.70
2024-03-10T08:35:15.640Z,7.80
2024-03-10T08:41:12.053Z,8.00
2024-03-10T08:47:06.001Z,8.10
2024-03-10T08:52:59.529Z,8.30
2024-03-10T08:58:54.333Z,8.50
2024-03-10T09:04:47.334Z,8.60
2024-03-10T09:10:49.631Z,8.80
2024-03-10T09:16:49.866Z,9.00
2024-03-10T09:22:43.663Z,9.20
2024-03-10T09:28:37.942Z,9.40
2024-03-10T09:34:33.321Z,9.60
2024-03-10T09:40:30.486Z,9.90
2024-03-10T09:46:24.304Z,10.00
2024-03-10T09:52:20.223Z,10.20
2024-03-10T09:58:23.349Z,10.50
2024-03-10T10:04:26.863Z,11.00
2024-03-10T10:10:22.542Z,11.50
2024-03-10T10:16:15.571Z,12.10
2024-03-10T10:22:08.880Z,12.50
2024-03-10T10:28:03.722Z,12.70
2024-03-10T10:33:57.181Z,12.80
2024-03-10T10:39:50.779Z,12.70
2024-03-10T10:45:45.543Z,12.80
2024-03-10T10:51:39.493Z,12.70
2024-03-10T10:57:34.739Z,13.30
2024-03-10T11:03:30.594Z,13.70
2024-03-10T11:09:29.221Z,13.70
2024-03-10T11:15:25.451Z,13.80
2024-03-10T11:21:23.713Z,13.90
2024-03-10T11:27:20.064Z,14.20
2024-03-10T11:33:14.946Z,14.00
2024-03-10T11:39:21.286Z,14.30
2024-03-10T11:45:15.103Z,14.90
2024-03-10T11:51:09.816Z,15.30
2024-03-10T11:57:06.713Z,15.90
2024-03-10T12:03:00.322Z,15.80
2024-03-10T12:08:53.679Z,15.90
2024-03-10T12:14:48.525Z,16.00
2024-03-10T12:20:42.045Z,16.00
2024-03-10T12:26:35.258Z,15.90
2024-03-10T12:32:30.128Z,15.70
2024-03-10T12:38:23.743Z,15.20
2024-03-10T12:44:17.175Z,15.00
2024-03-10T12:50:12.927Z,14.50
2024-03-10T12:56:06.750Z,14.10
2024-03-10T13:02:00.235Z,13.90
2024-03-10T13:07:55.120Z,13.90
2024-03-10T13:13:48.590Z,13.70
2024-03-10T13:19:42.045Z,13.40
2024-03-10T13:25:37.505Z,13.20
2024-03-10T13:31:32.103Z,13.10
2024-03-10T13:37:25.966Z,12.80
2024-03-10T13:43:20.728Z,12.70
2024-03-10T13:49:14.207Z,12.60
2024-03-10T13:55:08.347Z,12.60
2024-03-10T14:01:05.179Z,12.70
2024-03-10T14:06:59.306Z,13.30
2024-03-10T14:12:52.640Z,13.70
2024-03-10T14:18:48.220Z,13.80
2024-03-10T14:24:42.054Z,13.60
2024-03-10T14:30:35.577Z,13.60
2024-03-10T14:36:33.045Z,13.60
2024-03-10T14:42:26.485Z,14.00
2024-03-10T14:48:20.100Z,14.20
2024-03-10T14:54:15.083Z,14.40
2024-03-10T15:00:10.658Z,14.40
2024-03-10T15:06:04.070Z,14.20
2024-03-10T15:11:58.910Z,13.80
2024-03-10T15:17:53.584Z,13.40
2024-03-10T15:23:47.020Z,13.10
2024-03-10T15:29:42.680Z,12.90
2024-03-10T15:35:36.323Z,12.80
2024-03-10T15:41:29.960Z,12.60
2024-03-10T15:47:24.709Z,12.50
2024-03-10T15:53:18.619Z,12.30
2024-03-10T15:59:12.142Z,12.30
2024-03-10T16:05:15.832Z,12.20
2024-03-10T16:11:09.415Z,12.10
2024-03-10T16:17:09.615Z,12.10
2024-03-10T16:23:04.334Z,12.00
2024-03-10T16:28:57.831Z,12.00
2024-03-10T16:34:51.810Z,12.00
2024-03-10T16:40:47.684Z,12.00
2024-03-10T16:46:41.138Z,11.80
2024-03-10T16:52:34.554Z,11.80
2024-03-10T16:58:30.734Z,11.80
2024-03-10T17:04:24.206Z,11.70
2024-03-10T17:10:17.665Z,11.70
2024-03-10T17:16:13.707Z,11.60
2024-03-10T17:22:10.202Z,11.60
2024-03-10T17:28:05.760Z,11.50
2024-03-10T17:34:00.649Z,11.50
2024-03-10T17:39:56.691Z,11.50
2024-03-10T17:45:51.557Z,11.50
2024-03-10T17:51:46.814Z,11.40
2024-03-10T17:57:40.469Z,11.40
2024-03-10T18:03:33.590Z,11.30
2024-03-10T18:09:28.868Z,11.40
2024-03-10T18:15:23.088Z,11.30
2024-03-10T18:21:16.540Z,11.30
2024-03-10T18:27:11.603Z,11.30
2024-03-10T18:33:07.863Z,11.30
2024-03-10T18:39:01.613Z,11.20
2024-03-10T18:44:56.046Z,11.20
2024-03-10T18:50:54.587Z,11.10
2024-03-10T18:56:52.636Z,11.10
2024-03-10T19:02:47.339Z,11.10
2024-03-10T19:08:40.699Z,10.90
2024-03-10T19:14:34.079Z,10.80
2024-03-10T19:20:31.491Z,10.80
2024-03-10T19:26:25.104Z,10.70
2024-03-10T19:32:18.307Z,10.70
2024-03-10T19:38:13.555Z,10.70
2024-03-10T19:44:07.218Z,10.70
2024-03-10T19:50:00.669Z,10.70
2024-03-10T19:55:56.260Z,10.60
2024-03-10T20:01:51.418Z,10.60
2024-03-10T20:07:48.801Z,10.50
2024-03-10T20:13:44.038Z,10.50
2024-03-10T20:19:38.346Z,10.50
2024-03-10T20:25:32.465Z,10.40
2024-03-10T20:31:27.115Z,10.30
2024-03-10T20:37:20.499Z,10.30
2024-03-10T20:43:13.822Z,10.20
2024-03-10T20:49:08.351Z,10.20
2024-03-10T20:55:01.727Z,10.30
2024-03-10T21:00:55.983Z,10.20
2024-03-10T21:06:50.856Z,10.10
2024-03-10T21:12:44.517Z,10.20
2024-03-10T21:18:41.041Z,10.20
2024-03-10T21:24:36.488Z,10.20
2024-03-10T21:30:29.780Z,10.20
2024-03-10T21:36:24.744Z,10.10
2024-03-10T21:42:21.008Z,10.10
2024-03-10T21:48:14.644Z,10.10
2024-03-10T21:54:11.365Z,10.10
2024-03-10T22:00:16.510Z,10.10
2024-03-10T22:06:10.570Z,10.00
2024-03-10T22:12:03.989Z,10.10
2024-03-10T22:17:59.866Z,10.10
2024-03-10T22:23:53.636Z,10.10
2024-03-10T22:29:48.297Z,10.20
2024-03-10T22:35:42.965Z,10.00
2024-03-10T22:41:37.659Z,10.00
2024-03-10T22:47:32.216Z,10.00
2024-03-10T22:53:26.906Z,10.00
2024-03-10T22:59:21.375Z,10.00
2024-03-10T23:05:14.997Z,9.80
2024-03-10T23:11:09.918Z,9.80
2024-03-10T23:17:03.284Z,9.80
2024-03-10T23:22:58.706Z,9.80
2024-03-10T23:28:53.716Z,9.80
2024-03-10T23:34:47.107Z,9.80
2024-03-10T23:40:40.327Z,9.80
2024-03-10T23:46:35.064Z,9.80
2024-03-10T23:52:28.722Z,9.60
2024-03-10T23:58:22.347Z,9.60
